sensor_id;sensor_type;location;lat;lon;timestamp;P1;durP1;ratioP1;P2;durP2;ratioP2
27618;SDS011;15039;50.830;4.730;2022-07-29T00:00:05;3.05;;;1.00;;
27618;SDS011;15039;50.830;4.730;2022-07-29T00:02:32;5.72;;;1.10;;
27618;SDS011;15039;50.830;4.730;2022-07-29T00:04:58;4.10;;;0.98;;
27618;SDS011;15039;50.830;4.730;2022-07-29T00:07:24;6.57;;;1.10;;
27618;SDS011;15039;50.830;4.730;2022-07-29T00:09:50;5.20;;;1.10;;
27618;SDS011;15039;50.830;4.730;2022-07-29T00:12:16;1.58;;;1.00;;
27618;SDS011;15039;50.830;4.730;2022-07-29T00:14:41;2.65;;;1.10;;
27618;SDS011;15039;50.830;4.730;2022-07-29T00:17:07;3.05;;;1.13;;
27618;SDS011;15039;50.830;4.730;2022-07-29T00:19:33;3.05;;;1.10;;
27618;SDS011;15039;50.830;4.730;2022-07-29T00:21:59;2.88;;;1.10;;
27618;SDS011;15039;50.830;4.730;2022-07-29T00:24:25;2.92;;;0.90;;
27618;SDS011;15039;50.830;4.730;2022-07-29T00:26:51;1.88;;;1.00;;
27618;SDS011;15039;50.830;4.730;2022-07-29T00:29:17;1.88;;;1.20;;
27618;SDS011;15039;50.830;4.730;2022-07-29T00:31:42;4.75;;;1.13;;
27618;SDS011;15039;50.830;4.730;2022-07-29T00:34:08;3.58;;;1.42;;
27618;SDS011;15039;50.830;4.730;2022-07-29T00:36:54;4.53;;;1.65;;
27618;SDS011;15039;50.830;4.730;2022-07-29T00:39:19;3.38;;;1.15;;
27618;SDS011;15039;50.830;4.730;2022-07-29T00:41:45;4.20;;;1.05;;
27618;SDS011;15039;50.830;4.730;2022-07-29T00:44:11;7.53;;;1.27;;
27618;SDS011;15039;50.830;4.730;2022-07-29T00:46:36;2.10;;;1.15;;
27618;SDS011;15039;50.830;4.730;2022-07-29T00:49:02;4.78;;;1.30;;
27618;SDS011;15039;50.830;4.730;2022-07-29T00:51:28;3.17;;;1.17;;
27618;SDS011;15039;50.830;4.730;2022-07-29T00:53:54;3.92;;;1.10;;
27618;SDS011;15039;50.830;4.730;2022-07-29T00:56:21;4.43;;;1.73;;
27618;SDS011;15039;50.830;4.730;2022-07-29T00:58:46;3.40;;;1.05;;
27618;SDS011;15039;50.830;4.730;2022-07-29T01:01:15;2.58;;;1.10;;
27618;SDS011;15039;50.830;4.730;2022-07-29T01:03:40;6.22;;;1.10;;
27618;SDS011;15039;50.830;4.730;2022-07-29T01:06:06;2.58;;;1.30;;
27618;SDS011;15039;50.830;4.730;2022-07-29T01:08:32;5.15;;;1.13;;
27618;SDS011;15039;50.830;4.730;2022-07-29T01:10:58;3.08;;;1.17;;
27618;SDS011;15039;50.830;4.730;2022-07-29T01:13:26;5.50;;;1.20;;
27618;SDS011;15039;50.830;4.730;2022-07-29T01:16:13;3.25;;;1.00;;
27618;SDS011;15039;50.830;4.730;2022-07-29T01:18:44;3.88;;;1.20;;
27618;SDS011;15039;50.830;4.730;2022-07-29T01:29:58;2.15;;;0.93;;
27618;SDS011;15039;50.830;4.730;2022-07-29T01:32:28;7.28;;;1.42;;
27618;SDS011;15039;50.830;4.730;2022-07-29T01:37:33;4.35;;;1.20;;
27618;SDS011;15039;50.830;4.730;2022-07-29T01:40:11;2.85;;;1.00;;
27618;SDS011;15039;50.830;4.730;2022-07-29T01:42:44;3.13;;;1.05;;
27618;SDS011;15039;50.830;4.730;2022-07-29T01:47:46;2.17;;;0.98;;
27618;SDS011;15039;50.830;4.730;2022-07-29T01:50:26;1.95;;;1.23;;
27618;SDS011;15039;50.830;4.730;2022-07-29T01:53:00;4.45;;;1.20;;
27618;SDS011;15039;50.830;4.730;2022-07-29T01:55:33;2.53;;;1.20;;
27618;SDS011;15039;50.830;4.730;2022-07-29T01:58:03;2.92;;;1.60;;
27618;SDS011;15039;50.830;4.730;2022-07-29T02:00:31;4.00;;;1.08;;
27618;SDS011;15039;50.830;4.730;2022-07-29T02:02:59;6.57;;;1.33;;
27618;SDS011;15039;50.830;4.730;2022-07-29T02:05:30;5.18;;;1.17;;
27618;SDS011;15039;50.830;4.730;2022-07-29T02:07:57;3.30;;;1.00;;
27618;SDS011;15039;50.830;4.730;2022-07-29T02:10:26;3.42;;;1.30;;
27618;SDS011;15039;50.830;4.730;2022-07-29T02:12:54;2.03;;;1.23;;
27618;SDS011;15039;50.830;4.730;2022-07-29T02:15:23;5.05;;;1.45;;
27618;SDS011;15039;50.830;4.730;2022-07-29T02:17:51;4.10;;;1.55;;
27618;SDS011;15039;50.830;4.730;2022-07-29T02:20:25;3.90;;;1.25;;
27618;SDS011;15039;50.830;4.730;2022-07-29T02:22:52;3.25;;;1.40;;
27618;SDS011;15039;50.830;4.730;2022-07-29T02:25:19;8.48;;;1.30;;
27618;SDS011;15039;50.830;4.730;2022-07-29T02:27:47;3.22;;;1.42;;
27618;SDS011;15039;50.830;4.730;2022-07-29T02:30:15;1.25;;;1.00;;
27618;SDS011;15039;50.830;4.730;2022-07-29T02:32:42;2.72;;;1.33;;
27618;SDS011;15039;50.830;4.730;2022-07-29T02:35:10;4.03;;;1.58;;
27618;SDS011;15039;50.830;4.730;2022-07-29T02:37:39;7.03;;;1.55;;
27618;SDS011;15039;50.830;4.730;2022-07-29T02:40:08;2.13;;;1.30;;
27618;SDS011;15039;50.830;4.730;2022-07-29T02:42:36;3.55;;;1.50;;
27618;SDS011;15039;50.830;4.730;2022-07-29T02:45:04;6.07;;;1.60;;
27618;SDS011;15039;50.830;4.730;2022-07-29T02:47:41;5.88;;;1.58;;
27618;SDS011;15039;50.830;4.730;2022-07-29T02:50:11;8.05;;;1.50;;
27618;SDS011;15039;50.830;4.730;2022-07-29T02:52:41;3.83;;;1.70;;
27618;SDS011;15039;50.830;4.730;2022-07-29T02:55:37;3.72;;;1.05;;
27618;SDS011;15039;50.830;4.730;2022-07-29T02:58:19;4.90;;;1.40;;
27618;SDS011;15039;50.830;4.730;2022-07-29T03:00:53;3.80;;;1.75;;
27618;SDS011;15039;50.830;4.730;2022-07-29T03:03:22;4.35;;;1.55;;
27618;SDS011;15039;50.830;4.730;2022-07-29T03:05:56;6.38;;;1.55;;
27618;SDS011;15039;50.830;4.730;2022-07-29T03:08:23;5.47;;;1.90;;
27618;SDS011;15039;50.830;4.730;2022-07-29T03:10:51;5.65;;;1.67;;
27618;SDS011;15039;50.830;4.730;2022-07-29T03:13:17;2.35;;;1.50;;
27618;SDS011;15039;50.830;4.730;2022-07-29T03:15:44;5.20;;;1.52;;
27618;SDS011;15039;50.830;4.730;2022-07-29T03:18:10;6.00;;;2.10;;
27618;SDS011;15039;50.830;4.730;2022-07-29T03:20:40;3.50;;;1.63;;
27618;SDS011;15039;50.830;4.730;2022-07-29T03:23:07;2.95;;;1.50;;
27618;SDS011;15039;50.830;4.730;2022-07-29T03:25:33;2.72;;;1.50;;
27618;SDS011;15039;50.830;4.730;2022-07-29T03:27:59;3.90;;;1.75;;
27618;SDS011;15039;50.830;4.730;2022-07-29T03:30:25;4.05;;;1.63;;
27618;SDS011;15039;50.830;4.730;2022-07-29T03:32:51;7.53;;;1.83;;
27618;SDS011;15039;50.830;4.730;2022-07-29T03:35:20;4.05;;;1.63;;
27618;SDS011;15039;50.830;4.730;2022-07-29T03:40:22;3.08;;;1.58;;
27618;SDS011;15039;50.830;4.730;2022-07-29T03:42:52;5.35;;;1.48;;
27618;SDS011;15039;50.830;4.730;2022-07-29T03:45:20;3.22;;;1.77;;
27618;SDS011;15039;50.830;4.730;2022-07-29T03:47:51;7.68;;;1.95;;
27618;SDS011;15039;50.830;4.730;2022-07-29T03:50:22;2.58;;;1.60;;
27618;SDS011;15039;50.830;4.730;2022-07-29T03:52:48;4.82;;;1.70;;
27618;SDS011;15039;50.830;4.730;2022-07-29T03:55:14;4.78;;;1.75;;
27618;SDS011;15039;50.830;4.730;2022-07-29T03:57:40;5.28;;;1.65;;
27618;SDS011;15039;50.830;4.730;2022-07-29T04:00:07;4.70;;;1.63;;
27618;SDS011;15039;50.830;4.730;2022-07-29T04:02:33;5.20;;;1.90;;
27618;SDS011;15039;50.830;4.730;2022-07-29T04:05:00;2.88;;;1.55;;
27618;SDS011;15039;50.830;4.730;2022-07-29T04:07:25;4.78;;;1.90;;
27618;SDS011;15039;50.830;4.730;2022-07-29T04:09:51;2.75;;;1.55;;
27618;SDS011;15039;50.830;4.730;2022-07-29T04:12:17;3.30;;;1.50;;
27618;SDS011;15039;50.830;4.730;2022-07-29T04:14:43;3.58;;;1.67;;
27618;SDS011;15039;50.830;4.730;2022-07-29T04:17:08;2.90;;;1.65;;
27618;SDS011;15039;50.830;4.730;2022-07-29T04:19:34;5.70;;;1.98;;
27618;SDS011;15039;50.830;4.730;2022-07-29T04:22:00;4.68;;;2.13;;
27618;SDS011;15039;50.830;4.730;2022-07-29T04:24:26;3.22;;;1.73;;
27618;SDS011;15039;50.830;4.730;2022-07-29T04:26:52;6.28;;;1.67;;
27618;SDS011;15039;50.830;4.730;2022-07-29T04:29:18;3.45;;;1.65;;
27618;SDS011;15039;50.830;4.730;2022-07-29T04:31:44;9.55;;;1.95;;
27618;SDS011;15039;50.830;4.730;2022-07-29T04:34:11;2.83;;;1.58;;
27618;SDS011;15039;50.830;4.730;2022-07-29T04:36:37;3.80;;;2.10;;
27618;SDS011;15039;50.830;4.730;2022-07-29T04:39:03;4.75;;;1.90;;
27618;SDS011;15039;50.830;4.730;2022-07-29T04:41:29;3.22;;;2.00;;
27618;SDS011;15039;50.830;4.730;2022-07-29T04:43:54;5.10;;;1.73;;
27618;SDS011;15039;50.830;4.730;2022-07-29T04:46:20;7.50;;;1.95;;
27618;SDS011;15039;50.830;4.730;2022-07-29T04:48:46;6.47;;;2.00;;
27618;SDS011;15039;50.830;4.730;2022-07-29T04:51:12;6.97;;;1.80;;
27618;SDS011;15039;50.830;4.730;2022-07-29T04:53:39;4.82;;;1.88;;
27618;SDS011;15039;50.830;4.730;2022-07-29T04:56:05;4.35;;;1.90;;
27618;SDS011;15039;50.830;4.730;2022-07-29T04:58:30;4.38;;;1.75;;
27618;SDS011;15039;50.830;4.730;2022-07-29T05:00:56;4.32;;;2.30;;
27618;SDS011;15039;50.830;4.730;2022-07-29T05:03:22;4.07;;;1.80;;
27618;SDS011;15039;50.830;4.730;2022-07-29T05:05:47;6.57;;;1.92;;
27618;SDS011;15039;50.830;4.730;2022-07-29T05:08:13;6.43;;;2.30;;
27618;SDS011;15039;50.830;4.730;2022-07-29T05:10:39;4.00;;;1.67;;
27618;SDS011;15039;50.830;4.730;2022-07-29T05:13:05;4.43;;;1.70;;
27618;SDS011;15039;50.830;4.730;2022-07-29T05:15:31;3.30;;;1.90;;
27618;SDS011;15039;50.830;4.730;2022-07-29T05:17:58;6.93;;;1.98;;
27618;SDS011;15039;50.830;4.730;2022-07-29T05:20:24;7.35;;;2.20;;
27618;SDS011;15039;50.830;4.730;2022-07-29T05:22:53;4.97;;;2.30;;
27618;SDS011;15039;50.830;4.730;2022-07-29T05:25:23;6.88;;;2.13;;
27618;SDS011;15039;50.830;4.730;2022-07-29T05:27:50;6.30;;;2.42;;
27618;SDS011;15039;50.830;4.730;2022-07-29T05:30:16;3.15;;;1.80;;
27618;SDS011;15039;50.830;4.730;2022-07-29T05:32:42;2.50;;;1.80;;
27618;SDS011;15039;50.830;4.730;2022-07-29T05:35:08;2.72;;;1.77;;
27618;SDS011;15039;50.830;4.730;2022-07-29T05:37:34;5.07;;;1.95;;
27618;SDS011;15039;50.830;4.730;2022-07-29T05:39:59;5.20;;;2.17;;
27618;SDS011;15039;50.830;4.730;2022-07-29T05:42:25;3.88;;;1.90;;
27618;SDS011;15039;50.830;4.730;2022-07-29T05:44:51;4.20;;;2.28;;
27618;SDS011;15039;50.830;4.730;2022-07-29T05:47:18;6.53;;;2.20;;
27618;SDS011;15039;50.830;4.730;2022-07-29T05:49:43;5.25;;;2.15;;
27618;SDS011;15039;50.830;4.730;2022-07-29T05:52:09;4.70;;;2.28;;
27618;SDS011;15039;50.830;4.730;2022-07-29T05:54:35;4.32;;;2.22;;
27618;SDS011;15039;50.830;4.730;2022-07-29T05:57:01;5.60;;;2.45;;
27618;SDS011;15039;50.830;4.730;2022-07-29T05:59:28;2.72;;;2.10;;
27618;SDS011;15039;50.830;4.730;2022-07-29T06:01:53;7.50;;;2.55;;
27618;SDS011;15039;50.830;4.730;2022-07-29T06:04:19;2.33;;;2.13;;
27618;SDS011;15039;50.830;4.730;2022-07-29T06:06:45;3.55;;;2.20;;
27618;SDS011;15039;50.830;4.730;2022-07-29T06:09:11;4.15;;;2.40;;
27618;SDS011;15039;50.830;4.730;2022-07-29T06:11:37;9.15;;;2.40;;
27618;SDS011;15039;50.830;4.730;2022-07-29T06:14:02;3.33;;;2.22;;
27618;SDS011;15039;50.830;4.730;2022-07-29T06:16:28;4.05;;;2.33;;
27618;SDS011;15039;50.830;4.730;2022-07-29T06:18:54;6.68;;;2.45;;
27618;SDS011;15039;50.830;4.730;2022-07-29T06:21:20;4.53;;;2.00;;
27618;SDS011;15039;50.830;4.730;2022-07-29T06:23:45;3.25;;;2.38;;
27618;SDS011;15039;50.830;4.730;2022-07-29T06:26:11;3.05;;;2.00;;
27618;SDS011;15039;50.830;4.730;2022-07-29T06:28:37;3.78;;;2.28;;
27618;SDS011;15039;50.830;4.730;2022-07-29T06:31:02;4.70;;;1.95;;
27618;SDS011;15039;50.830;4.730;2022-07-29T06:33:28;3.38;;;2.28;;
27618;SDS011;15039;50.830;4.730;2022-07-29T06:35:54;2.75;;;1.77;;
27618;SDS011;15039;50.830;4.730;2022-07-29T06:38:19;2.75;;;2.03;;
27618;SDS011;15039;50.830;4.730;2022-07-29T06:40:46;5.03;;;2.30;;
27618;SDS011;15039;50.830;4.730;2022-07-29T06:46:05;4.13;;;2.63;;
27618;SDS011;15039;50.830;4.730;2022-07-29T06:48:33;3.40;;;1.90;;
27618;SDS011;15039;50.830;4.730;2022-07-29T06:51:01;4.27;;;2.50;;
27618;SDS011;15039;50.830;4.730;2022-07-29T06:53:28;2.88;;;2.40;;
27618;SDS011;15039;50.830;4.730;2022-07-29T06:55:56;5.97;;;2.70;;
27618;SDS011;15039;50.830;4.730;2022-07-29T06:58:23;6.22;;;2.50;;
27618;SDS011;15039;50.830;4.730;2022-07-29T07:00:50;7.07;;;2.83;;
27618;SDS011;15039;50.830;4.730;2022-07-29T07:03:16;4.60;;;2.63;;
27618;SDS011;15039;50.830;4.730;2022-07-29T07:05:43;4.50;;;2.90;;
27618;SDS011;15039;50.830;4.730;2022-07-29T07:08:10;6.93;;;2.38;;
27618;SDS011;15039;50.830;4.730;2022-07-29T07:10:36;3.55;;;2.60;;
27618;SDS011;15039;50.830;4.730;2022-07-29T07:13:03;7.20;;;2.42;;
27618;SDS011;15039;50.830;4.730;2022-07-29T07:15:30;7.03;;;3.08;;
27618;SDS011;15039;50.830;4.730;2022-07-29T07:17:56;4.38;;;2.53;;
27618;SDS011;15039;50.830;4.730;2022-07-29T07:20:22;4.63;;;2.55;;
27618;SDS011;15039;50.830;4.730;2022-07-29T07:22:49;4.55;;;2.72;;
27618;SDS011;15039;50.830;4.730;2022-07-29T07:25:14;4.60;;;2.33;;
27618;SDS011;15039;50.830;4.730;2022-07-29T07:27:42;5.72;;;3.15;;
27618;SDS011;15039;50.830;4.730;2022-07-29T07:30:08;9.48;;;3.05;;
27618;SDS011;15039;50.830;4.730;2022-07-29T07:32:34;4.63;;;2.63;;
27618;SDS011;15039;50.830;4.730;2022-07-29T07:35:00;5.80;;;2.58;;
27618;SDS011;15039;50.830;4.730;2022-07-29T07:37:26;6.93;;;2.63;;
27618;SDS011;15039;50.830;4.730;2022-07-29T07:39:52;5.43;;;2.65;;
27618;SDS011;15039;50.830;4.730;2022-07-29T07:42:18;7.15;;;3.22;;
27618;SDS011;15039;50.830;4.730;2022-07-29T07:44:44;8.75;;;2.53;;
27618;SDS011;15039;50.830;4.730;2022-07-29T07:47:11;4.13;;;2.90;;
27618;SDS011;15039;50.830;4.730;2022-07-29T07:49:38;4.03;;;2.63;;
27618;SDS011;15039;50.830;4.730;2022-07-29T07:52:04;4.00;;;3.03;;
27618;SDS011;15039;50.830;4.730;2022-07-29T07:54:29;3.53;;;2.47;;
27618;SDS011;15039;50.830;4.730;2022-07-29T07:56:55;8.45;;;3.10;;
27618;SDS011;15039;50.830;4.730;2022-07-29T07:59:21;5.88;;;2.83;;
27618;SDS011;15039;50.830;4.730;2022-07-29T08:01:47;3.85;;;2.58;;
27618;SDS011;15039;50.830;4.730;2022-07-29T08:04:14;6.40;;;3.63;;
27618;SDS011;15039;50.830;4.730;2022-07-29T08:06:40;4.80;;;2.65;;
27618;SDS011;15039;50.830;4.730;2022-07-29T08:09:05;3.35;;;2.50;;
27618;SDS011;15039;50.830;4.730;2022-07-29T08:11:31;2.75;;;2.55;;
27618;SDS011;15039;50.830;4.730;2022-07-29T08:13:57;6.70;;;2.60;;
27618;SDS011;15039;50.830;4.730;2022-07-29T08:16:23;6.50;;;2.22;;
27618;SDS011;15039;50.830;4.730;2022-07-29T08:18:50;4.72;;;2.90;;
27618;SDS011;15039;50.830;4.730;2022-07-29T08:21:16;3.55;;;2.38;;
27618;SDS011;15039;50.830;4.730;2022-07-29T08:23:43;6.10;;;2.47;;
27618;SDS011;15039;50.830;4.730;2022-07-29T08:26:18;6.80;;;2.50;;
27618;SDS011;15039;50.830;4.730;2022-07-29T08:28:44;3.78;;;2.58;;
27618;SDS011;15039;50.830;4.730;2022-07-29T08:31:11;3.05;;;2.50;;
27618;SDS011;15039;50.830;4.730;2022-07-29T08:33:38;4.80;;;2.72;;
27618;SDS011;15039;50.830;4.730;2022-07-29T08:36:04;6.50;;;2.22;;
27618;SDS011;15039;50.830;4.730;2022-07-29T08:38:31;4.82;;;2.40;;
27618;SDS011;15039;50.830;4.730;2022-07-29T08:40:57;5.88;;;2.55;;
27618;SDS011;15039;50.830;4.730;2022-07-29T08:43:25;5.60;;;2.40;;
27618;SDS011;15039;50.830;4.730;2022-07-29T08:45:51;5.38;;;2.80;;
27618;SDS011;15039;50.830;4.730;2022-07-29T08:48:17;9.85;;;2.33;;
27618;SDS011;15039;50.830;4.730;2022-07-29T08:50:45;4.90;;;2.78;;
27618;SDS011;15039;50.830;4.730;2022-07-29T08:53:12;5.22;;;2.60;;
27618;SDS011;15039;50.830;4.730;2022-07-29T08:55:40;5.50;;;2.30;;
27618;SDS011;15039;50.830;4.730;2022-07-29T08:58:08;4.80;;;2.13;;
27618;SDS011;15039;50.830;4.730;2022-07-29T09:00:35;3.33;;;1.92;;
27618;SDS011;15039;50.830;4.730;2022-07-29T09:03:04;5.25;;;2.20;;
27618;SDS011;15039;50.830;4.730;2022-07-29T09:05:31;2.20;;;2.00;;
27618;SDS011;15039;50.830;4.730;2022-07-29T09:07:58;7.45;;;2.00;;
27618;SDS011;15039;50.830;4.730;2022-07-29T09:10:24;4.40;;;1.88;;
27618;SDS011;15039;50.830;4.730;2022-07-29T09:12:50;5.75;;;2.42;;
27618;SDS011;15039;50.830;4.730;2022-07-29T09:15:17;2.58;;;1.63;;
27618;SDS011;15039;50.830;4.730;2022-07-29T09:17:44;3.53;;;2.13;;
27618;SDS011;15039;50.830;4.730;2022-07-29T09:20:13;3.45;;;2.33;;
27618;SDS011;15039;50.830;4.730;2022-07-29T09:22:43;4.47;;;2.03;;
27618;SDS011;15039;50.830;4.730;2022-07-29T09:25:14;2.72;;;1.90;;
27618;SDS011;15039;50.830;4.730;2022-07-29T09:28:04;4.00;;;1.80;;
27618;SDS011;15039;50.830;4.730;2022-07-29T09:30:34;5.57;;;1.83;;
27618;SDS011;15039;50.830;4.730;2022-07-29T09:33:01;3.78;;;1.52;;
27618;SDS011;15039;50.830;4.730;2022-07-29T09:35:29;2.22;;;1.58;;
27618;SDS011;15039;50.830;4.730;2022-07-29T09:37:56;3.05;;;1.45;;
27618;SDS011;15039;50.830;4.730;2022-07-29T09:42:48;1.52;;;1.10;;
27618;SDS011;15039;50.830;4.730;2022-07-29T09:45:28;3.20;;;1.10;;
27618;SDS011;15039;50.830;4.730;2022-07-29T09:47:56;3.63;;;1.63;;
27618;SDS011;15039;50.830;4.730;2022-07-29T09:50:37;1.13;;;1.02;;
27618;SDS011;15039;50.830;4.730;2022-07-29T09:53:04;1.33;;;1.20;;
27618;SDS011;15039;50.830;4.730;2022-07-29T09:55:30;2.53;;;1.33;;
27618;SDS011;15039;50.830;4.730;2022-07-29T09:58:14;2.95;;;1.50;;
27618;SDS011;15039;50.830;4.730;2022-07-29T10:00:44;2.83;;;1.17;;
27618;SDS011;15039;50.830;4.730;2022-07-29T10:03:10;2.45;;;1.23;;
27618;SDS011;15039;50.830;4.730;2022-07-29T10:05:37;5.78;;;1.00;;
27618;SDS011;15039;50.830;4.730;2022-07-29T10:08:03;2.72;;;0.98;;
27618;SDS011;15039;50.830;4.730;2022-07-29T10:10:31;2.97;;;1.30;;
27618;SDS011;15039;50.830;4.730;2022-07-29T10:13:02;2.92;;;1.30;;
27618;SDS011;15039;50.830;4.730;2022-07-29T10:15:29;2.55;;;1.20;;
27618;SDS011;15039;50.830;4.730;2022-07-29T10:17:57;2.97;;;1.42;;
27618;SDS011;15039;50.830;4.730;2022-07-29T10:20:23;5.68;;;1.13;;
27618;SDS011;15039;50.830;4.730;2022-07-29T10:22:50;2.38;;;1.20;;
27618;SDS011;15039;50.830;4.730;2022-07-29T10:25:17;1.70;;;1.10;;
27618;SDS011;15039;50.830;4.730;2022-07-29T10:27:44;2.45;;;1.40;;
27618;SDS011;15039;50.830;4.730;2022-07-29T10:30:10;2.35;;;1.30;;
27618;SDS011;15039;50.830;4.730;2022-07-29T10:35:23;2.22;;;1.08;;
27618;SDS011;15039;50.830;4.730;2022-07-29T10:43:36;2.47;;;1.35;;
27618;SDS011;15039;50.830;4.730;2022-07-29T10:46:06;1.67;;;1.20;;
27618;SDS011;15039;50.830;4.730;2022-07-29T10:48:33;2.72;;;1.00;;
27618;SDS011;15039;50.830;4.730;2022-07-29T10:51:03;5.00;;;0.98;;
27618;SDS011;15039;50.830;4.730;2022-07-29T10:53:49;2.75;;;1.05;;
27618;SDS011;15039;50.830;4.730;2022-07-29T10:56:23;2.00;;;1.00;;
27618;SDS011;15039;50.830;4.730;2022-07-29T11:01:44;2.00;;;1.10;;
27618;SDS011;15039;50.830;4.730;2022-07-29T11:04:11;2.15;;;0.85;;
27618;SDS011;15039;50.830;4.730;2022-07-29T11:09:30;1.95;;;1.10;;
27618;SDS011;15039;50.830;4.730;2022-07-29T11:11:59;2.65;;;1.10;;
27618;SDS011;15039;50.830;4.730;2022-07-29T11:17:09;2.92;;;1.50;;
27618;SDS011;15039;50.830;4.730;2022-07-29T11:19:35;1.90;;;1.13;;
27618;SDS011;15039;50.830;4.730;2022-07-29T11:22:01;3.67;;;1.20;;
27618;SDS011;15039;50.830;4.730;2022-07-29T11:24:28;3.30;;;1.50;;
27618;SDS011;15039;50.830;4.730;2022-07-29T11:32:17;2.42;;;1.05;;
27618;SDS011;15039;50.830;4.730;2022-07-29T11:34:47;4.85;;;1.15;;
27618;SDS011;15039;50.830;4.730;2022-07-29T11:37:17;1.90;;;0.98;;
27618;SDS011;15039;50.830;4.730;2022-07-29T11:42:53;1.17;;;0.98;;
27618;SDS011;15039;50.830;4.730;2022-07-29T11:45:04;2.03;;;1.48;;
27618;SDS011;15039;50.830;4.730;2022-07-29T11:47:41;4.10;;;1.15;;
27618;SDS011;15039;50.830;4.730;2022-07-29T11:53:13;2.78;;;1.20;;
27618;SDS011;15039;50.830;4.730;2022-07-29T11:55:39;2.15;;;1.20;;
27618;SDS011;15039;50.830;4.730;2022-07-29T11:58:06;4.22;;;1.60;;
27618;SDS011;15039;50.830;4.730;2022-07-29T12:00:34;8.50;;;1.60;;
27618;SDS011;15039;50.830;4.730;2022-07-29T12:03:03;3.17;;;1.30;;
27618;SDS011;15039;50.830;4.730;2022-07-29T12:05:34;6.13;;;1.40;;
27618;SDS011;15039;50.830;4.730;2022-07-29T12:08:05;2.92;;;1.40;;
27618;SDS011;15039;50.830;4.730;2022-07-29T12:10:31;2.67;;;1.40;;
27618;SDS011;15039;50.830;4.730;2022-07-29T12:12:57;4.57;;;1.50;;
27618;SDS011;15039;50.830;4.730;2022-07-29T12:15:23;5.68;;;1.50;;
27618;SDS011;15039;50.830;4.730;2022-07-29T12:17:50;2.90;;;1.30;;
27618;SDS011;15039;50.830;4.730;2022-07-29T12:20:26;3.92;;;1.33;;
27618;SDS011;15039;50.830;4.730;2022-07-29T12:22:54;5.10;;;1.30;;
27618;SDS011;15039;50.830;4.730;2022-07-29T12:25:20;2.45;;;1.13;;
27618;SDS011;15039;50.830;4.730;2022-07-29T12:27:57;2.90;;;1.25;;
27618;SDS011;15039;50.830;4.730;2022-07-29T12:30:33;3.63;;;1.40;;
27618;SDS011;15039;50.830;4.730;2022-07-29T12:33:17;3.90;;;1.45;;
27618;SDS011;15039;50.830;4.730;2022-07-29T12:35:47;2.10;;;1.10;;
27618;SDS011;15039;50.830;4.730;2022-07-29T12:38:21;2.53;;;1.52;;
27618;SDS011;15039;50.830;4.730;2022-07-29T12:40:47;3.53;;;1.10;;
27618;SDS011;15039;50.830;4.730;2022-07-29T12:43:16;6.25;;;1.52;;
27618;SDS011;15039;50.830;4.730;2022-07-29T12:45:45;2.92;;;1.13;;
27618;SDS011;15039;50.830;4.730;2022-07-29T12:48:13;2.55;;;1.27;;
27618;SDS011;15039;50.830;4.730;2022-07-29T12:50:55;4.00;;;1.20;;
27618;SDS011;15039;50.830;4.730;2022-07-29T12:53:23;3.42;;;1.38;;
27618;SDS011;15039;50.830;4.730;2022-07-29T12:55:50;2.50;;;1.35;;
27618;SDS011;15039;50.830;4.730;2022-07-29T12:58:33;7.00;;;1.60;;
27618;SDS011;15039;50.830;4.730;2022-07-29T13:01:01;3.67;;;1.10;;
27618;SDS011;15039;50.830;4.730;2022-07-29T13:06:31;3.47;;;1.27;;
27618;SDS011;15039;50.830;4.730;2022-07-29T13:09:07;7.28;;;1.65;;
27618;SDS011;15039;50.830;4.730;2022-07-29T13:14:06;3.83;;;1.08;;
27618;SDS011;15039;50.830;4.730;2022-07-29T13:16:34;6.25;;;1.60;;
27618;SDS011;15039;50.830;4.730;2022-07-29T13:21:33;5.57;;;1.58;;
27618;SDS011;15039;50.830;4.730;2022-07-29T13:23:59;2.20;;;1.00;;
27618;SDS011;15039;50.830;4.730;2022-07-29T13:26:25;3.42;;;1.33;;
27618;SDS011;15039;50.830;4.730;2022-07-29T13:28:51;2.70;;;1.20;;
27618;SDS011;15039;50.830;4.730;2022-07-29T13:31:16;2.95;;;1.45;;
27618;SDS011;15039;50.830;4.730;2022-07-29T13:33:42;4.00;;;1.15;;
27618;SDS011;15039;50.830;4.730;2022-07-29T13:36:07;3.10;;;1.05;;
27618;SDS011;15039;50.830;4.730;2022-07-29T13:38:33;6.60;;;1.48;;
27618;SDS011;15039;50.830;4.730;2022-07-29T13:40:59;3.15;;;1.33;;
27618;SDS011;15039;50.830;4.730;2022-07-29T13:43:25;3.63;;;1.20;;
27618;SDS011;15039;50.830;4.730;2022-07-29T13:45:51;1.98;;;1.23;;
27618;SDS011;15039;50.830;4.730;2022-07-29T13:48:16;5.13;;;1.20;;
27618;SDS011;15039;50.830;4.730;2022-07-29T13:50:42;3.05;;;1.42;;
27618;SDS011;15039;50.830;4.730;2022-07-29T13:53:08;3.22;;;0.95;;
27618;SDS011;15039;50.830;4.730;2022-07-29T13:55:33;3.90;;;1.35;;
27618;SDS011;15039;50.830;4.730;2022-07-29T13:57:59;3.25;;;1.00;;
27618;SDS011;15039;50.830;4.730;2022-07-29T14:00:25;1.08;;;0.88;;
27618;SDS011;15039;50.830;4.730;2022-07-29T14:02:51;5.00;;;1.48;;
27618;SDS011;15039;50.830;4.730;2022-07-29T14:05:17;2.60;;;1.40;;
27618;SDS011;15039;50.830;4.730;2022-07-29T14:07:42;2.17;;;0.95;;
27618;SDS011;15039;50.830;4.730;2022-07-29T14:10:09;3.95;;;1.30;;
27618;SDS011;15039;50.830;4.730;2022-07-29T14:12:35;4.72;;;1.17;;
27618;SDS011;15039;50.830;4.730;2022-07-29T14:15:00;4.07;;;1.50;;
27618;SDS011;15039;50.830;4.730;2022-07-29T14:17:26;2.80;;;1.25;;
27618;SDS011;15039;50.830;4.730;2022-07-29T14:19:52;3.90;;;1.23;;
27618;SDS011;15039;50.830;4.730;2022-07-29T14:22:17;3.08;;;1.25;;
27618;SDS011;15039;50.830;4.730;2022-07-29T14:24:44;4.35;;;1.48;;
27618;SDS011;15039;50.830;4.730;2022-07-29T14:27:10;4.75;;;1.83;;
27618;SDS011;15039;50.830;4.730;2022-07-29T14:29:36;2.58;;;1.50;;
27618;SDS011;15039;50.830;4.730;2022-07-29T14:32:02;5.20;;;2.08;;
27618;SDS011;15039;50.830;4.730;2022-07-29T14:34:28;3.53;;;1.55;;
27618;SDS011;15039;50.830;4.730;2022-07-29T14:36:54;2.92;;;1.60;;
27618;SDS011;15039;50.830;4.730;2022-07-29T14:39:20;2.97;;;1.40;;
27618;SDS011;15039;50.830;4.730;2022-07-29T14:41:48;5.78;;;1.80;;
27618;SDS011;15039;50.830;4.730;2022-07-29T14:44:14;3.85;;;1.70;;
27618;SDS011;15039;50.830;4.730;2022-07-29T14:46:40;4.32;;;1.50;;
27618;SDS011;15039;50.830;4.730;2022-07-29T14:49:06;6.18;;;2.20;;
27618;SDS011;15039;50.830;4.730;2022-07-29T14:51:31;4.25;;;2.53;;
27618;SDS011;15039;50.830;4.730;2022-07-29T14:53:57;6.10;;;2.55;;
27618;SDS011;15039;50.830;4.730;2022-07-29T14:56:23;5.20;;;2.50;;
27618;SDS011;15039;50.830;4.730;2022-07-29T14:58:49;4.80;;;1.90;;
27618;SDS011;15039;50.830;4.730;2022-07-29T15:01:14;4.72;;;1.83;;
27618;SDS011;15039;50.830;4.730;2022-07-29T15:03:40;4.70;;;2.00;;
27618;SDS011;15039;50.830;4.730;2022-07-29T15:06:05;3.45;;;2.13;;
27618;SDS011;15039;50.830;4.730;2022-07-29T15:08:31;7.88;;;1.85;;
27618;SDS011;15039;50.830;4.730;2022-07-29T15:10:57;6.65;;;2.95;;
27618;SDS011;15039;50.830;4.730;2022-07-29T15:13:24;4.13;;;1.73;;
27618;SDS011;15039;50.830;4.730;2022-07-29T15:15:50;5.63;;;2.03;;
27618;SDS011;15039;50.830;4.730;2022-07-29T15:18:16;3.60;;;1.85;;
27618;SDS011;15039;50.830;4.730;2022-07-29T15:20:42;6.22;;;2.05;;
27618;SDS011;15039;50.830;4.730;2022-07-29T15:23:10;2.80;;;1.52;;
27618;SDS011;15039;50.830;4.730;2022-07-29T15:25:37;4.90;;;1.95;;
27618;SDS011;15039;50.830;4.730;2022-07-29T15:28:03;6.15;;;1.65;;
27618;SDS011;15039;50.830;4.730;2022-07-29T15:30:32;7.80;;;1.73;;
27618;SDS011;15039;50.830;4.730;2022-07-29T15:32:59;8.43;;;1.80;;
27618;SDS011;15039;50.830;4.730;2022-07-29T15:35:25;4.95;;;1.50;;
27618;SDS011;15039;50.830;4.730;2022-07-29T15:37:51;4.15;;;1.50;;
27618;SDS011;15039;50.830;4.730;2022-07-29T15:40:16;4.40;;;1.67;;
27618;SDS011;15039;50.830;4.730;2022-07-29T15:42:42;3.90;;;1.20;;
27618;SDS011;15039;50.830;4.730;2022-07-29T15:45:08;2.55;;;1.50;;
27618;SDS011;15039;50.830;4.730;2022-07-29T15:47:36;4.47;;;1.40;;